createdAt,value
2024-02-10T00:02:52.778Z,10.50
2024-02-10T00:07:57.075Z,10.50
2024-02-10T00:12:59.817Z,11.70
2024-02-10T00:18:01.767Z,10.50
2024-02-10T00:23:05.707Z,10.50
2024-02-10T00:28:07.535Z,10.40
2024-02-10T00:33:10.271Z,10.40
2024-02-10T00:38:16.163Z,10.40
2024-02-10T00:43:20.330Z,10.50
2024-02-10T00:48:22.219Z,10.50
2024-02-10T00:53:24.042Z,10.40
2024-02-10T00:58:26.325Z,10.40
2024-02-10T01:03:29.535Z,10.60
2024-02-10T01:08:33.594Z,11.40
2024-02-10T01:13:35.501Z,10.40
2024-02-10T01:18:38.050Z,10.40
2024-02-10T01:23:44.081Z,8.50
2024-02-10T01:28:46.259Z,10.30
2024-02-10T01:33:50.771Z,10.30
2024-02-10T01:38:54.988Z,10.40
2024-02-10T01:43:57.153Z,10.40
2024-02-10T01:49:00.582Z,10.40
2024-02-10T01:54:04.424Z,10.50
2024-02-10T01:59:09.052Z,10.30
2024-02-10T02:04:13.283Z,10.30
2024-02-10T02:09:16.502Z,10.40
2024-02-10T02:14:18.586Z,10.30
2024-02-10T02:19:20.745Z,10.30
2024-02-10T02:24:27.261Z,10.40
2024-02-10T02:29:29.276Z,10.40
2024-02-10T02:34:35.190Z,10.70
2024-02-10T02:39:37.807Z,10.40
2024-02-10T02:44:40.036Z,10.50
2024-02-10T02:49:42.187Z,10.40
2024-02-10T02:54:44.293Z,10.40
2024-02-10T02:59:48.215Z,10.30
2024-02-10T03:04:50.359Z,10.30
2024-02-10T03:09:52.287Z,10.30
2024-02-10T03:14:56.171Z,10.30
2024-02-10T03:20:01.793Z,10.30
2024-02-10T03:25:04.453Z,10.30
2024-02-10T03:30:10.262Z,10.20
2024-02-10T03:35:13.178Z,10.20
2024-02-10T03:40:19.611Z,10.10
2024-02-10T03:45:21.878Z,10.00
2024-02-10T03:50:23.736Z,9.90
2024-02-10T03:55:26.255Z,9.90
2024-02-10T04:00:29.842Z,9.90
2024-02-10T04:05:35.639Z,9.80
2024-02-10T04:10:38.421Z,9.90
2024-02-10T04:15:41.185Z,9.90
2024-02-10T04:20:45.557Z,9.90
2024-02-10T04:25:47.321Z,9.80
2024-02-10T04:30:49.582Z,9.90
2024-02-10T04:35:52.436Z,9.90
2024-02-10T04:40:54.402Z,9.90
2024-02-10T04:45:56.539Z,9.90
2024-02-10T04:50:58.636Z,9.80
2024-02-10T04:56:02.041Z,9.80
2024-02-10T05:01:04.179Z,9.80
2024-02-10T05:06:06.190Z,9.70
2024-02-10T05:11:08.046Z,9.90
2024-02-10T05:16:11.318Z,10.00
2024-02-10T05:21:18.668Z,10.00
2024-02-10T05:26:20.673Z,10.00
2024-02-10T05:31:22.480Z,9.80
2024-02-10T05:36:24.568Z,9.80
2024-02-10T05:41:26.586Z,9.70
2024-02-10T05:46:29.830Z,9.90
2024-02-10T05:51:40.060Z,9.90
2024-02-10T05:56:44.407Z,10.00
2024-02-10T06:01:48.422Z,9.90
2024-02-10T06:06:50.468Z,9.70
2024-02-10T06:11:53.797Z,9.70
2024-02-10T06:16:57.050Z,9.80
2024-02-10T06:21:59.037Z,9.80
2024-02-10T06:27:01.713Z,9.90
2024-02-10T06:32:07.571Z,9.80
2024-02-10T06:37:09.929Z,9.70
2024-02-10T06:42:12.939Z,9.80
2024-02-10T06:47:16.219Z,9.70
2024-02-10T06:52:20.784Z,9.70
2024-02-10T06:57:22.680Z,9.60
2024-02-10T07:02:26.056Z,9.70
2024-02-10T07:07:28.214Z,9.60
2024-02-10T07:12:31.424Z,9.70
2024-02-10T07:17:36.736Z,9.80
2024-02-10T07:22:38.718Z,9.60
2024-02-10T07:27:40.638Z,9.70
2024-02-10T07:32:47.003Z,9.60
2024-02-10T07:37:52.894Z,9.70
2024-02-10T07:42:55.336Z,9.70
2024-02-10T07:47:59.119Z,12.30
2024-02-10T07:53:01.624Z,10.00
2024-02-10T07:58:06.289Z,10.00
2024-02-10T08:03:13.446Z,9.90
2024-02-10T08:08:15.459Z,10.00
2024-02-10T08:13:17.297Z,9.80
2024-02-10T08:18:19.939Z,9.90
2024-02-10T08:23:22.064Z,10.00
2024-02-10T08:28:24.133Z,10.00
2024-02-10T08:33:30.257Z,9.90
2024-02-10T08:38:33.203Z,10.10
2024-02-10T08:43:38.697Z,10.10
2024-02-10T08:48:42.601Z,10.60
2024-02-10T08:53:45.474Z,10.10
2024-02-10T08:58:51.978Z,10.30
2024-02-10T09:03:58.089Z,10.30
2024-02-10T09:09:00.075Z,10.60
2024-02-10T09:14:02.011Z,10.10
2024-02-10T09:19:04.269Z,10.20
2024-02-10T09:24:06.613Z,10.30
2024-02-10T09:29:08.949Z,10.10
2024-02-10T09:34:12.923Z,10.20
2024-02-10T09:39:14.933Z,10.20
2024-02-10T09:44:18.767Z,10.40
2024-02-10T09:49:23.395Z,10.60
2024-02-10T09:54:25.642Z,10.70
2024-02-10T09:59:27.941Z,10.50
2024-02-10T10:04:30.129Z,10.50
2024-02-10T10:09:33.597Z,10.60
2024-02-10T10:14:37.792Z,10.60
2024-02-10T10:19:42.403Z,10.60
2024-02-10T10:24:44.312Z,10.80
2024-02-10T10:29:47.057Z,10.80
2024-02-10T10:34:50.068Z,10.70
2024-02-10T10:39:53.020Z,10.80
2024-02-10T10:44:57.115Z,10.90
2024-02-10T10:49:59.159Z,11.00
2024-02-10T10:55:02.273Z,11.10
2024-02-10T11:00:13.302Z,11.10
2024-02-10T11:05:18.070Z,11.10
2024-02-10T11:10:42.963Z,11.10
2024-02-10T11:15:44.871Z,11.10
2024-02-10T11:20:46.715Z,11.30
2024-02-10T11:25:49.431Z,11.40
2024-02-10T11:30:51.354Z,11.40
2024-02-10T11:35:56.727Z,11.30
2024-02-10T11:40:59.010Z,11.40
2024-02-10T11:46:00.940Z,11.30
2024-02-10T11:51:05.712Z,11.30
2024-02-10T11:56:08.942Z,11.20
2024-02-10T12:01:12.498Z,11.30
2024-02-10T12:06:16.453Z,11.50
2024-02-10T12:11:18.635Z,11.50
2024-02-10T12:16:21.562Z,11.60
2024-02-10T12:21:27.624Z,11.70
2024-02-10T12:26:29.800Z,11.70
2024-02-10T12:31:33.339Z,11.70
2024-02-10T12:36:35.472Z,12.00
2024-02-10T12:41:37.373Z,12.00
2024-02-10T12:46:40.184Z,12.00
2024-02-10T12:51:43.380Z,12.00
2024-02-10T12:56:45.109Z,12.20
2024-02-10T13:01:47.034Z,12.40
2024-02-10T13:06:50.438Z,12.30
2024-02-10T13:11:52.866Z,12.40
2024-02-10T13:16:58.440Z,12.40
2024-02-10T13:22:01.777Z,12.40
2024-02-10T13:27:03.850Z,12.10
2024-02-10T13:32:06.601Z,12.20
2024-02-10T13:37:08.680Z,12.30
2024-02-10T13:42:29.409Z,12.30
2024-02-10T13:47:49.948Z,12.30
2024-02-10T13:53:10.560Z,12.50
2024-02-10T13:58:12.979Z,12.80
2024-02-10T14:03:15.781Z,13.00
2024-02-10T14:08:36.922Z,13.30
2024-02-10T14:13:44.660Z,13.70
2024-02-10T14:18:48.338Z,16.00
2024-02-10T14:23:50.169Z,15.60
2024-02-10T14:28:54.932Z,14.60
2024-02-10T14:33:59.065Z,14.00
2024-02-10T14:39:07.919Z,13.70
2024-02-10T14:44:11.946Z,13.20
2024-02-10T14:49:16.394Z,13.10
2024-02-10T14:54:18.706Z,13.00
2024-02-10T14:59:21.505Z,12.80
2024-02-10T15:04:24.321Z,12.70
2024-02-10T15:09:29.039Z,12.70
2024-02-10T15:14:31.733Z,12.50
2024-02-10T15:19:35.109Z,12.60
2024-02-10T15:24:37.025Z,12.40
2024-02-10T15:29:38.912Z,12.20
2024-02-10T15:34:48.502Z,12.60
2024-02-10T15:39:56.582Z,12.40
2024-02-10T15:45:00.511Z,12.60
2024-02-10T15:50:02.516Z,12.50
2024-02-10T15:55:04.911Z,12.50
2024-02-10T16:00:13.362Z,12.40
2024-02-10T16:05:19.719Z,12.30
2024-02-10T16:10:22.347Z,12.20
2024-02-10T16:15:25.544Z,12.10
2024-02-10T16:20:28.397Z,12.00
2024-02-10T16:25:30.636Z,11.80
2024-02-10T16:30:34.512Z,11.70
2024-02-10T16:40:46.444Z,11.20
2024-02-10T16:45:50.275Z,11.20
2024-02-10T16:51:00.729Z,11.10
2024-02-10T16:56:03.256Z,11.00
2024-02-10T17:16:16.158Z,10.50
2024-02-10T17:26:26.983Z,10.30
2024-02-10T17:36:40.367Z,10.20
2024-02-10T17:41:45.714Z,10.10
2024-02-10T17:46:50.739Z,10.10
2024-02-10T17:51:54.194Z,10.10
2024-02-10T17:56:56.434Z,10.00
2024-02-10T18:02:01.859Z,10.20
2024-02-10T18:07:06.018Z,10.10
2024-02-10T18:12:09.926Z,10.10
2024-02-10T18:17:13.879Z,12.30
2024-02-10T18:22:16.661Z,10.00
2024-02-10T18:27:18.708Z,10.10
2024-02-10T18:32:21.341Z,10.00
2024-02-10T18:37:23.870Z,10.00
2024-02-10T18:42:26.145Z,10.00
2024-02-10T18:47:31.802Z,9.80
2024-02-10T18:52:33.960Z,9.90
2024-02-10T18:57:37.648Z,10.60
2024-02-10T19:02:39.968Z,10.20
2024-02-10T19:07:41.853Z,9.90
2024-02-10T19:12:49.469Z,10.40
2024-02-10T19:17:51.515Z,11.10
2024-02-10T19:22:53.898Z,9.80
2024-02-10T19:27:56.517Z,9.80
2024-02-10T19:32:59.969Z,9.80
2024-02-10T19:38:02.631Z,9.80
2024-02-10T19:43:07.380Z,9.70
2024-02-10T19:48:09.735Z,9.70
2024-02-10T19:53:13.428Z,9.90
2024-02-10T19:58:19.032Z,9.40
2024-02-10T20:03:21.820Z,9.40
2024-02-10T20:08:24.499Z,9.40
2024-02-10T20:13:30.369Z,9.50
2024-02-10T20:18:37.766Z,9.50
2024-02-10T20:23:43.321Z,9.50
2024-02-10T20:28:45.299Z,9.30
2024-02-10T20:33:54.153Z,9.40
2024-02-10T20:39:02.216Z,9.70
2024-02-10T20:44:08.205Z,9.70
2024-02-10T20:49:12.317Z,9.60
2024-02-10T20:54:14.941Z,9.70
2024-02-10T20:59:19.893Z,9.60
2024-02-10T21:04:23.811Z,9.60
2024-02-10T21:09:27.235Z,9.70
2024-02-10T21:14:28.957Z,9.70
2024-02-10T21:19:31.715Z,9.70
2024-02-10T21:24:34.053Z,9.70
2024-02-10T21:29:36.087Z,9.70
2024-02-10T21:34:38.416Z,9.50
2024-02-10T21:39:40.655Z,9.40
2024-02-10T21:44:55.075Z,9.70
2024-02-10T21:49:57.563Z,9.50
2024-02-10T21:55:01.277Z,9.40
2024-02-10T22:00:26.999Z,9.40
2024-02-10T22:05:29.352Z,9.50
2024-02-10T22:10:32.383Z,9.60
2024-02-10T22:15:34.501Z,10.60
2024-02-10T22:20:36.390Z,9.50
2024-02-10T22:25:41.739Z,9.50
2024-02-10T22:30:43.629Z,9.60
2024-02-10T22:35:45.518Z,9.60
2024-02-10T22:40:50.746Z,9.60
2024-02-10T22:45:53.116Z,9.60
2024-02-10T22:50:54.890Z,9.70
2024-02-10T22:55:56.972Z,9.70
2024-02-10T23:01:01.794Z,9.70
2024-02-10T23:06:04.717Z,9.60
2024-02-10T23:11:06.891Z,9.60
2024-02-10T23:16:12.133Z,9.60
2024-02-10T23:21:19.337Z,9.60
2024-02-10T23:26:21.242Z,9.60
2024-02-10T23:31:27.605Z,9.50
2024-02-10T23:36:30.064Z,9.50
2024-02-10T23:41:31.887Z,9.50
2024-02-10T23:46:33.819Z,9.50
2024-02-10T23:51:38.288Z,9.50
2024-02-10T23:56:40.532Z,9.40
